createdAt,value
2017-10-20T00:00:59.330Z,14.10
2017-10-20T00:01:59.754Z,13.60
2017-10-20T00:02:58.629Z,13.40
2017-10-20T00:03:58.873Z,12.80
2017-10-20T00:04:58.905Z,13.20
2017-10-20T00:05:58.864Z,12.90
2017-10-20T00:06:58.680Z,13.20
2017-10-20T00:07:58.975Z,12.70
2017-10-20T00:08:59.408Z,12.70
2017-10-20T00:10:00.138Z,13.40
2017-10-20T00:10:59.572Z,12.80
2017-10-20T00:11:59.691Z,12.70
2017-10-20T00:12:58.994Z,12.50
2017-10-20T00:13:59.228Z,12.60
2017-10-20T00:14:59.675Z,12.90
2017-10-20T00:15:59.003Z,13.20
2017-10-20T00:16:58.793Z,13.10
2017-10-20T00:17:58.524Z,13.10
2017-10-20T00:18:58.437Z,13.50
2017-10-20T00:19:59.831Z,12.80
2017-10-20T00:20:59.116Z,13.40
2017-10-20T00:21:59.551Z,12.90
2017-10-20T00:22:59.046Z,13.40
2017-10-20T00:23:59.412Z,13.10
2017-10-20T00:24:59.237Z,12.60
2017-10-20T00:25:59.193Z,12.80
2017-10-20T00:26:59.408Z,12.70
2017-10-20T00:27:58.407Z,12.80
2017-10-20T00:28:59.294Z,12.70
2017-10-20T00:29:59.375Z,12.80
2017-10-20T00:31:00.183Z,12.70
2017-10-20T00:31:58.890Z,13.80
2017-10-20T00:32:59.512Z,12.00
2017-10-20T00:33:59.968Z,13.00
2017-10-20T00:34:58.881Z,13.00
2017-10-20T00:35:58.659Z,13.20
2017-10-20T00:36:59.543Z,13.10
2017-10-20T00:37:59.701Z,11.90
2017-10-20T00:38:58.979Z,11.90
2017-10-20T00:39:58.806Z,13.10
2017-10-20T00:40:58.525Z,12.10
2017-10-20T00:41:58.850Z,12.40
2017-10-20T00:42:59.103Z,12.20
2017-10-20T00:43:58.979Z,11.40
2017-10-20T00:44:59.408Z,12.60
2017-10-20T00:45:59.447Z,11.50
2017-10-20T00:46:58.453Z,12.10
2017-10-20T00:47:59.895Z,11.80
2017-10-20T00:48:59.267Z,11.70
2017-10-20T00:49:59.070Z,11.50
2017-10-20T00:50:59.169Z,11.20
2017-10-20T00:51:59.125Z,11.10
2017-10-20T00:52:59.641Z,12.50
2017-10-20T00:53:58.647Z,12.00
2017-10-20T00:54:58.859Z,12.10
2017-10-20T00:55:58.613Z,11.00
2017-10-20T00:56:58.825Z,12.40
2017-10-20T00:57:58.484Z,11.80
2017-10-20T00:59:00.001Z,11.80
2017-10-20T00:59:58.402Z,11.80
2017-10-20T01:00:59.292Z,11.50
2017-10-20T01:01:59.642Z,11.00
2017-10-20T01:02:59.092Z,11.30
2017-10-20T01:04:00.053Z,10.90
2017-10-20T01:04:58.759Z,10.20
2017-10-20T01:05:58.983Z,10.80
2017-10-20T01:06:59.338Z,10.30
2017-10-20T01:07:58.586Z,10.00
2017-10-20T01:08:58.789Z,10.10
2017-10-20T01:09:59.580Z,9.80
2017-10-20T01:10:59.380Z,9.80
2017-10-20T01:11:58.827Z,9.40
2017-10-20T01:12:59.151Z,9.80
2017-10-20T01:13:58.819Z,9.60
2017-10-20T01:15:00.183Z,9.50
2017-10-20T01:15:59.659Z,10.00
2017-10-20T01:16:58.969Z,9.30
2017-10-20T01:17:58.991Z,9.70
2017-10-20T01:18:59.267Z,9.30
2017-10-20T01:19:59.620Z,9.80
2017-10-20T01:20:58.485Z,9.80
2017-10-20T01:21:58.336Z,9.30
2017-10-20T01:22:58.682Z,9.50
2017-10-20T01:23:58.516Z,9.10
2017-10-20T01:25:00.171Z,9.30
2017-10-20T01:25:58.898Z,9.60
2017-10-20T01:26:58.668Z,9.40
2017-10-20T01:27:58.854Z,9.40
2017-10-20T01:28:59.121Z,8.50
2017-10-20T01:29:59.077Z,9.80
2017-10-20T01:30:59.411Z,8.80
2017-10-20T01:31:59.245Z,10.00
2017-10-20T01:32:59.200Z,9.30
2017-10-20T01:33:59.086Z,9.20
2017-10-20T01:34:59.133Z,10.00
2017-10-20T01:35:59.046Z,8.90
2017-10-20T01:36:58.784Z,9.40
2017-10-20T01:37:58.511Z,8.80
2017-10-20T01:38:59.884Z,9.20
2017-10-20T01:39:58.732Z,9.30
2017-10-20T01:40:59.021Z,9.20
2017-10-20T01:41:58.756Z,9.60
2017-10-20T01:42:59.183Z,8.80
2017-10-20T01:43:59.189Z,9.70
2017-10-20T01:44:58.918Z,9.90
2017-10-20T01:45:59.290Z,10.20
2017-10-20T01:46:59.570Z,9.40
2017-10-20T01:47:59.616Z,9.80
2017-10-20T01:48:59.577Z,9.20
2017-10-20T01:49:58.291Z,8.70
2017-10-20T01:50:59.483Z,9.10
2017-10-20T01:51:58.373Z,9.20
2017-10-20T01:52:59.733Z,9.40
2017-10-20T01:53:58.541Z,9.10
2017-10-20T01:54:58.397Z,9.80
2017-10-20T01:55:58.437Z,9.70
2017-10-20T01:56:59.135Z,9.30
2017-10-20T01:57:58.925Z,8.70
2017-10-20T01:58:58.763Z,9.30
2017-10-20T01:59:58.628Z,8.70
2017-10-20T02:00:58.585Z,8.40
2017-10-20T02:01:59.213Z,9.10
2017-10-20T02:02:59.079Z,8.60
2017-10-20T02:03:59.074Z,8.60
2017-10-20T02:04:58.722Z,8.60
2017-10-20T02:05:58.837Z,8.10
2017-10-20T02:06:59.156Z,8.20
2017-10-20T02:07:59.864Z,7.20
2017-10-20T02:08:58.716Z,7.00
2017-10-20T02:09:59.334Z,6.90
2017-10-20T02:10:59.069Z,7.50
2017-10-20T02:11:58.886Z,7.20
2017-10-20T02:12:58.508Z,6.90
2017-10-20T02:13:59.794Z,7.10
2017-10-20T02:14:58.682Z,7.20
2017-10-20T02:15:59.165Z,6.40
2017-10-20T02:17:00.185Z,6.90
2017-10-20T02:17:59.404Z,6.40
2017-10-20T02:18:59.996Z,6.40
2017-10-20T02:19:59.191Z,7.40
2017-10-20T02:21:00.471Z,6.70
2017-10-20T02:21:58.322Z,7.30
2017-10-20T02:22:59.004Z,7.20
2017-10-20T02:23:59.293Z,6.60
2017-10-20T02:24:59.096Z,6.90
2017-10-20T02:25:58.911Z,6.60
2017-10-20T02:26:58.879Z,6.70
2017-10-20T02:27:58.838Z,6.90
2017-10-20T02:28:58.647Z,7.00
2017-10-20T02:29:59.106Z,6.90
2017-10-20T02:30:59.552Z,6.70
2017-10-20T02:31:58.776Z,7.60
2017-10-20T02:32:59.268Z,6.60
2017-10-20T02:33:59.891Z,7.70
2017-10-20T02:34:59.118Z,7.00
2017-10-20T02:35:59.196Z,6.50
2017-10-20T02:36:58.903Z,6.80
2017-10-20T02:37:58.878Z,6.90
2017-10-20T02:38:59.618Z,6.90
2017-10-20T02:39:59.004Z,7.10
2017-10-20T02:40:59.443Z,6.90
2017-10-20T02:41:59.643Z,6.50
2017-10-20T02:42:59.009Z,7.40
2017-10-20T02:43:58.729Z,6.90
2017-10-20T02:44:59.091Z,6.80
2017-10-20T02:45:58.737Z,7.40
2017-10-20T02:46:59.112Z,7.10
2017-10-20T02:47:59.557Z,7.30
2017-10-20T02:48:59.254Z,7.00
2017-10-20T02:49:59.136Z,7.20
2017-10-20T02:50:59.349Z,7.10
2017-10-20T02:51:59.432Z,7.50
2017-10-20T02:52:59.660Z,7.60
2017-10-20T02:53:59.184Z,8.10
2017-10-20T02:54:59.569Z,7.70
2017-10-20T02:55:58.412Z,7.60
2017-10-20T02:56:59.301Z,7.40
2017-10-20T02:57:58.985Z,7.20
2017-10-20T02:58:58.877Z,7.70
2017-10-20T02:59:58.538Z,8.20
2017-10-20T03:00:58.271Z,6.70
2017-10-20T03:01:58.275Z,8.20
2017-10-20T03:02:59.379Z,8.00
2017-10-20T03:03:59.386Z,8.00
2017-10-20T03:04:58.490Z,8.30
2017-10-20T03:05:58.761Z,8.50
2017-10-20T03:06:58.691Z,8.20
2017-10-20T03:07:59.252Z,7.90
2017-10-20T03:08:59.041Z,7.80
2017-10-20T03:09:59.024Z,8.50
2017-10-20T03:10:58.767Z,7.80
2017-10-20T03:11:58.592Z,8.70
2017-10-20T03:12:58.375Z,7.60
2017-10-20T03:13:58.933Z,8.60
2017-10-20T03:14:58.709Z,8.20
2017-10-20T03:15:58.637Z,7.80
2017-10-20T03:16:58.580Z,8.20
2017-10-20T03:17:59.061Z,7.90
2017-10-20T03:18:59.151Z,8.60
2017-10-20T03:19:59.919Z,8.10
2017-10-20T03:20:58.989Z,8.30
2017-10-20T03:21:59.234Z,8.00
2017-10-20T03:22:58.875Z,9.10
2017-10-20T03:23:59.372Z,8.30
2017-10-20T03:24:59.144Z,8.10
2017-10-20T03:25:58.388Z,8.90
2017-10-20T03:26:58.293Z,8.90
2017-10-20T03:27:59.186Z,9.20
2017-10-20T03:28:59.761Z,8.60
2017-10-20T03:29:58.618Z,8.10
2017-10-20T03:30:58.960Z,8.90
2017-10-20T03:31:58.936Z,8.60
2017-10-20T03:32:59.276Z,9.20
2017-10-20T03:33:58.189Z,8.90
2017-10-20T03:34:59.559Z,8.30
2017-10-20T03:35:59.404Z,8.20
2017-10-20T03:36:58.447Z,9.30
2017-10-20T03:37:58.183Z,8.20
2017-10-20T03:38:58.682Z,9.20
2017-10-20T03:39:59.145Z,8.60
2017-10-20T03:40:59.480Z,8.60
2017-10-20T03:41:58.873Z,9.50
2017-10-20T03:42:59.085Z,8.40
2017-10-20T03:44:00.129Z,9.30
2017-10-20T03:44:59.237Z,8.40
2017-10-20T03:45:59.143Z,9.20
2017-10-20T03:46:59.472Z,8.60
2017-10-20T03:47:58.235Z,9.30
2017-10-20T03:48:59.346Z,9.10
2017-10-20T03:49:59.084Z,8.00
2017-10-20T03:50:58.945Z,8.80
2017-10-20T03:51:59.146Z,9.50
2017-10-20T03:52:59.070Z,8.30
2017-10-20T03:53:58.924Z,9.60
2017-10-20T03:54:58.519Z,8.60
2017-10-20T03:55:58.758Z,9.10
2017-10-20T03:56:58.872Z,8.80
2017-10-20T03:57:59.346Z,10.10
2017-10-20T03:58:58.886Z,9.20
2017-10-20T03:59:58.970Z,9.30
2017-10-20T04:00:59.197Z,8.70
2017-10-20T04:01:59.554Z,9.00
2017-10-20T04:02:58.869Z,8.50
2017-10-20T04:03:59.306Z,9.30
2017-10-20T04:04:58.571Z,8.40
2017-10-20T04:05:58.347Z,8.50
2017-10-20T04:06:59.458Z,8.60
2017-10-20T04:07:58.418Z,9.70
2017-10-20T04:08:58.308Z,8.90
2017-10-20T04:09:58.702Z,9.30
2017-10-20T04:10:59.255Z,8.60
2017-10-20T04:11:59.071Z,9.30
2017-10-20T04:12:58.889Z,8.40
2017-10-20T04:13:59.038Z,8.00
2017-10-20T04:14:58.616Z,8.40
2017-10-20T04:15:59.391Z,8.20
2017-10-20T04:16:59.030Z,8.60
2017-10-20T04:17:59.513Z,8.30
2017-10-20T04:18:59.005Z,8.20
2017-10-20T04:19:58.722Z,7.40
2017-10-20T04:20:58.982Z,7.70
2017-10-20T04:21:58.852Z,8.20
2017-10-20T04:22:59.121Z,8.20
2017-10-20T04:23:59.000Z,8.40
2017-10-20T04:24:58.872Z,7.80
2017-10-20T04:25:59.197Z,8.20
2017-10-20T04:26:58.347Z,8.30
2017-10-20T04:27:58.692Z,8.10
2017-10-20T04:28:59.564Z,7.90
2017-10-20T04:29:58.741Z,7.80
2017-10-20T04:30:58.859Z,8.80
2017-10-20T04:31:58.654Z,7.70
2017-10-20T04:32:58.821Z,7.80
2017-10-20T04:33:59.429Z,8.30
2017-10-20T04:34:58.179Z,7.50
2017-10-20T04:35:58.731Z,8.10
2017-10-20T04:36:58.895Z,7.80
2017-10-20T04:37:58.914Z,7.90
2017-10-20T04:38:59.286Z,7.90
2017-10-20T04:39:58.180Z,8.00
2017-10-20T04:40:59.464Z,8.20
2017-10-20T04:41:58.709Z,8.80
2017-10-20T04:42:58.237Z,8.40
2017-10-20T04:43:59.069Z,8.20
2017-10-20T04:44:58.724Z,8.20
2017-10-20T04:45:58.827Z,7.50
2017-10-20T04:46:59.094Z,7.40
2017-10-20T04:47:59.363Z,7.70
2017-10-20T04:48:58.756Z,7.90
2017-10-20T04:49:59.448Z,7.50
2017-10-20T04:50:58.204Z,6.90
2017-10-20T04:51:58.134Z,8.20
2017-10-20T04:52:59.091Z,7.60
2017-10-20T04:53:59.270Z,7.80
2017-10-20T04:54:59.355Z,7.80
2017-10-20T04:55:59.132Z,7.30
2017-10-20T04:56:59.165Z,8.00
2017-10-20T04:57:59.073Z,7.90
2017-10-20T04:58:58.363Z,7.80
2017-10-20T04:59:58.510Z,7.40
2017-10-20T05:00:59.200Z,7.60
2017-10-20T05:01:59.400Z,7.60
2017-10-20T05:02:58.414Z,8.00
2017-10-20T05:03:58.197Z,7.50
2017-10-20T05:04:58.099Z,7.90
2017-10-20T05:05:59.753Z,8.00
2017-10-20T05:06:58.945Z,7.60
2017-10-20T05:07:58.757Z,7.10
2017-10-20T05:08:59.202Z,7.40
2017-10-20T05:09:59.321Z,7.70
2017-10-20T05:10:59.761Z,7.30
2017-10-20T05:11:59.016Z,7.20
2017-10-20T05:12:59.112Z,7.50
2017-10-20T05:13:58.771Z,7.50
2017-10-20T05:14:58.516Z,7.10
2017-10-20T05:15:58.842Z,7.30
2017-10-20T05:16:59.671Z,7.60
2017-10-20T05:17:58.284Z,7.70
2017-10-20T05:18:58.234Z,6.90
2017-10-20T05:19:58.711Z,6.70
2017-10-20T05:20:58.517Z,7.10
2017-10-20T05:21:58.470Z,7.40
2017-10-20T05:22:58.864Z,6.80
2017-10-20T05:23:58.625Z,6.90
2017-10-20T05:24:58.376Z,6.80
2017-10-20T05:25:58.306Z,6.70
2017-10-20T05:26:59.347Z,7.10
2017-10-20T05:27:58.730Z,6.50
2017-10-20T05:28:58.961Z,6.50
2017-10-20T05:29:58.878Z,6.90
2017-10-20T05:30:59.052Z,6.60
2017-10-20T05:31:58.441Z,6.90
2017-10-20T05:32:58.536Z,6.10
2017-10-20T05:33:58.955Z,7.80
2017-10-20T05:34:58.732Z,6.60
2017-10-20T05:35:58.735Z,7.40
2017-10-20T05:36:58.440Z,6.70
2017-10-20T05:37:58.884Z,6.90
2017-10-20T05:38:59.228Z,6.80
2017-10-20T05:39:59.085Z,5.90
2017-10-20T05:40:58.899Z,7.20
2017-10-20T05:41:58.263Z,6.40
2017-10-20T05:42:58.709Z,6.70
2017-10-20T05:43:59.193Z,6.80
2017-10-20T05:44:58.719Z,6.00
2017-10-20T05:45:58.573Z,6.50
2017-10-20T05:46:59.076Z,6.60
2017-10-20T05:47:59.388Z,6.10
2017-10-20T05:48:59.417Z,6.40
2017-10-20T05:49:58.506Z,6.10
2017-10-20T05:50:58.222Z,5.90
2017-10-20T05:51:58.143Z,5.50
2017-10-20T05:52:59.175Z,6.10
2017-10-20T05:53:59.904Z,5.70
2017-10-20T05:54:59.258Z,5.60
2017-10-20T05:55:59.077Z,5.70
2017-10-20T05:56:59.151Z,6.00
2017-10-20T05:57:58.701Z,5.60
2017-10-20T05:58:58.539Z,5.80
2017-10-20T05:59:59.473Z,5.30
2017-10-20T06:00:59.527Z,5.30
2017-10-20T06:01:58.256Z,4.90
2017-10-20T06:02:58.672Z,5.40
2017-10-20T06:03:59.254Z,6.30
2017-10-20T06:04:58.779Z,5.30
2017-10-20T06:05:59.171Z,5.40
2017-10-20T06:06:58.260Z,5.50
2017-10-20T06:07:59.521Z,5.40
2017-10-20T06:08:58.881Z,5.60
2017-10-20T06:09:58.888Z,5.60
2017-10-20T06:10:59.536Z,5.50
2017-10-20T06:11:58.766Z,5.30
2017-10-20T06:12:58.735Z,5.60
2017-10-20T06:13:58.975Z,5.00
2017-10-20T06:14:59.501Z,5.10
2017-10-20T06:15:58.887Z,5.20
2017-10-20T06:16:59.333Z,5.40
2017-10-20T06:17:58.490Z,5.50
2017-10-20T06:18:58.659Z,5.50
2017-10-20T06:19:59.008Z,5.90
2017-10-20T06:20:58.923Z,5.70
2017-10-20T06:21:59.307Z,6.40
2017-10-20T06:22:58.268Z,6.40
2017-10-20T06:23:59.059Z,7.00
2017-10-20T06:24:58.193Z,7.30
2017-10-20T06:25:58.616Z,7.70
2017-10-20T06:26:59.154Z,7.90
2017-10-20T06:27:59.622Z,8.40
2017-10-20T06:28:59.054Z,8.10
2017-10-20T06:29:59.625Z,8.80
2017-10-20T06:30:58.927Z,8.30
2017-10-20T06:31:59.337Z,8.40
2017-10-20T06:32:58.365Z,9.40
2017-10-20T06:33:58.603Z,9.10
2017-10-20T06:34:58.898Z,9.20
2017-10-20T06:35:59.494Z,8.90
2017-10-20T06:36:58.755Z,8.80
2017-10-20T06:37:59.035Z,8.00
2017-10-20T06:38:58.965Z,9.30
2017-10-20T06:39:59.123Z,9.40
2017-10-20T06:40:59.395Z,8.90
2017-10-20T06:41:58.744Z,9.00
2017-10-20T06:42:58.664Z,8.80
2017-10-20T06:43:59.513Z,8.30
2017-10-20T06:44:58.569Z,8.90
2017-10-20T06:45:58.746Z,8.40
2017-10-20T06:46:59.025Z,9.20
2017-10-20T06:47:59.566Z,10.00
2017-10-20T06:48:58.905Z,9.70
2017-10-20T06:49:59.565Z,9.60
2017-10-20T06:50:58.376Z,8.60
2017-10-20T06:51:58.898Z,9.90
2017-10-20T06:52:59.010Z,10.10
2017-10-20T06:53:59.184Z,8.10
2017-10-20T06:54:59.297Z,9.20
2017-10-20T06:55:59.083Z,9.70
2017-10-20T06:56:59.679Z,8.80
2017-10-20T06:57:58.471Z,8.90
2017-10-20T06:58:58.545Z,9.40
2017-10-20T06:59:58.510Z,9.70
2017-10-20T07:00:59.573Z,9.30
2017-10-20T07:01:59.209Z,9.40
2017-10-20T07:02:59.331Z,9.90
2017-10-20T07:03:58.983Z,10.00
2017-10-20T07:04:59.541Z,8.00
2017-10-20T07:05:58.633Z,9.00
2017-10-20T07:06:58.742Z,9.60
2017-10-20T07:07:59.265Z,9.50
2017-10-20T07:08:58.555Z,10.30
2017-10-20T07:09:58.930Z,9.10
2017-10-20T07:10:59.175Z,8.70
2017-10-20T07:11:59.488Z,9.20
2017-10-20T07:12:59.110Z,10.20
2017-10-20T07:13:59.244Z,9.50
2017-10-20T07:14:58.393Z,9.40
2017-10-20T07:15:58.577Z,9.90
2017-10-20T07:16:59.773Z,9.60
2017-10-20T07:17:59.246Z,9.80
2017-10-20T07:18:58.687Z,9.80
2017-10-20T07:19:59.334Z,8.60
2017-10-20T07:20:58.586Z,9.50
2017-10-20T07:21:59.074Z,10.70
2017-10-20T07:22:59.893Z,10.20
2017-10-20T07:23:59.422Z,10.90
2017-10-20T07:24:58.458Z,10.20
2017-10-20T07:25:58.893Z,11.70
2017-10-20T07:26:59.160Z,11.00
2017-10-20T07:27:59.834Z,12.20
2017-10-20T07:28:58.810Z,10.70
2017-10-20T07:29:58.918Z,11.40
2017-10-20T07:30:59.096Z,10.40
2017-10-20T07:31:59.446Z,11.20
2017-10-20T07:32:59.047Z,11.20
2017-10-20T07:34:00.005Z,11.60
2017-10-20T07:34:59.867Z,11.40
2017-10-20T07:35:59.765Z,12.70
2017-10-20T07:36:59.599Z,12.80
2017-10-20T07:37:59.079Z,12.10
2017-10-20T07:38:58.938Z,12.70
2017-10-20T07:39:58.981Z,13.00
2017-10-20T07:40:59.001Z,14.00
2017-10-20T07:41:58.669Z,13.80
2017-10-20T07:42:59.108Z,13.90
2017-10-20T07:43:59.140Z,12.70
2017-10-20T07:44:59.231Z,13.50
2017-10-20T07:45:59.261Z,14.60
2017-10-20T07:46:59.173Z,13.00
2017-10-20T07:47:58.789Z,13.20
2017-10-20T07:48:59.509Z,14.90
2017-10-20T07:49:59.101Z,15.70
2017-10-20T07:50:59.440Z,13.10
2017-10-20T07:51:58.199Z,13.60
2017-10-20T07:52:58.795Z,13.60
2017-10-20T07:53:58.873Z,13.90
2017-10-20T07:54:59.802Z,14.90
2017-10-20T07:55:59.220Z,15.70
2017-10-20T07:56:58.767Z,13.40
2017-10-20T07:57:59.269Z,13.60
2017-10-20T07:58:59.781Z,14.80
2017-10-20T07:59:59.843Z,15.90
2017-10-20T08:00:59.251Z,15.90
2017-10-20T08:01:58.719Z,16.30
2017-10-20T08:02:59.446Z,15.70
2017-10-20T08:03:59.179Z,15.50
2017-10-20T08:05:00.180Z,15.40
2017-10-20T08:05:58.674Z,14.40
2017-10-20T08:06:58.876Z,14.80
2017-10-20T08:07:59.152Z,16.40
2017-10-20T08:08:59.476Z,16.10
2017-10-20T08:09:58.936Z,16.40
2017-10-20T08:10:59.622Z,16.40
2017-10-20T08:11:58.552Z,16.40
2017-10-20T08:12:59.139Z,16.70
2017-10-20T08:13:58.757Z,15.30
2017-10-20T08:14:59.516Z,16.00
2017-10-20T08:15:58.771Z,16.80
2017-10-20T08:16:59.038Z,16.10
2017-10-20T08:17:59.050Z,17.00
2017-10-20T08:18:59.154Z,16.00
2017-10-20T08:19:58.716Z,17.70
2017-10-20T08:20:59.113Z,17.00
2017-10-20T08:21:59.800Z,17.70
2017-10-20T08:22:58.697Z,14.90
2017-10-20T08:23:59.058Z,15.00
2017-10-20T08:24:59.266Z,17.40
2017-10-20T08:25:58.788Z,16.20
2017-10-20T08:26:58.859Z,14.10
2017-10-20T08:27:59.528Z,15.50
2017-10-20T08:28:59.607Z,14.80
2017-10-20T08:29:59.177Z,16.50
2017-10-20T08:30:58.782Z,16.90
2017-10-20T08:31:59.234Z,17.60
2017-10-20T08:32:58.297Z,17.30
2017-10-20T08:33:58.934Z,15.70
2017-10-20T08:34:59.310Z,15.60
2017-10-20T08:35:58.756Z,14.90
2017-10-20T08:36:59.036Z,15.40
2017-10-20T08:37:59.139Z,15.50
2017-10-20T08:38:59.453Z,15.90
2017-10-20T08:39:59.068Z,14.90
2017-10-20T08:40:59.238Z,15.00
2017-10-20T08:41:59.421Z,14.50
2017-10-20T08:42:59.181Z,14.80
2017-10-20T08:43:58.357Z,16.50
2017-10-20T08:44:59.439Z,15.50
2017-10-20T08:45:58.813Z,16.20
2017-10-20T08:46:59.311Z,15.40
2017-10-20T08:47:58.527Z,13.90
2017-10-20T08:48:59.067Z,16.40
2017-10-20T08:49:59.358Z,17.20
2017-10-20T08:50:58.999Z,15.30
2017-10-20T08:51:59.252Z,15.40
2017-10-20T08:52:58.574Z,15.00
2017-10-20T08:53:59.061Z,15.60
2017-10-20T08:54:58.339Z,15.70
2017-10-20T08:55:59.261Z,16.30
2017-10-20T08:56:58.948Z,17.00
2017-10-20T08:57:59.507Z,13.70
2017-10-20T08:58:59.225Z,15.20
2017-10-20T08:59:59.327Z,13.90
2017-10-20T09:00:59.480Z,14.30
2017-10-20T09:01:59.148Z,14.10
2017-10-20T09:02:59.004Z,12.60
2017-10-20T09:03:59.075Z,13.30
2017-10-20T09:04:58.459Z,12.90
2017-10-20T09:05:58.827Z,14.60
2017-10-20T09:06:59.333Z,15.60
2017-10-20T09:07:58.722Z,14.10
2017-10-20T09:08:58.963Z,15.40
2017-10-20T09:09:58.869Z,14.80
2017-10-20T09:10:59.285Z,15.10
2017-10-20T09:11:58.770Z,15.00
2017-10-20T09:12:59.274Z,14.10
2017-10-20T09:13:58.788Z,13.50
2017-10-20T09:14:59.358Z,13.80
2017-10-20T09:15:59.074Z,13.90
2017-10-20T09:16:58.429Z,15.30
2017-10-20T09:17:58.874Z,13.60
2017-10-20T09:18:59.483Z,14.60
2017-10-20T09:19:59.145Z,14.20
2017-10-20T09:20:58.467Z,14.50
2017-10-20T09:21:58.784Z,14.50
2017-10-20T09:22:59.391Z,15.20
2017-10-20T09:23:58.994Z,16.00
2017-10-20T09:24:59.839Z,14.10
2017-10-20T09:25:59.145Z,14.20
2017-10-20T09:26:58.343Z,14.80
2017-10-20T09:27:58.718Z,14.60
2017-10-20T09:28:59.462Z,15.10
2017-10-20T09:29:58.934Z,14.60
2017-10-20T09:31:00.541Z,14.20
2017-10-20T09:31:59.202Z,14.50
2017-10-20T09:32:58.355Z,14.80
2017-10-20T09:33:59.186Z,15.20
2017-10-20T09:34:59.197Z,13.50
2017-10-20T09:36:00.123Z,13.90
2017-10-20T09:37:00.002Z,14.30
2017-10-20T09:37:59.690Z,15.80
2017-10-20T09:38:59.356Z,15.20
2017-10-20T09:39:59.086Z,15.90
2017-10-20T09:40:59.303Z,15.80
2017-10-20T09:41:58.333Z,16.60
2017-10-20T09:42:59.200Z,17.00
2017-10-20T09:43:58.276Z,19.00
2017-10-20T09:44:58.546Z,19.50
2017-10-20T09:45:59.196Z,19.00
2017-10-20T09:46:58.294Z,18.50
2017-10-20T09:47:59.091Z,17.00
2017-10-20T09:48:59.617Z,19.00
2017-10-20T09:49:58.997Z,17.80
2017-10-20T09:50:58.658Z,19.30
2017-10-20T09:51:58.756Z,19.70
2017-10-20T09:52:59.451Z,18.80
2017-10-20T09:53:59.153Z,18.20
2017-10-20T09:54:58.978Z,17.80
2017-10-20T09:55:58.432Z,18.90
2017-10-20T09:56:58.506Z,19.80
2017-10-20T09:57:59.089Z,17.20
2017-10-20T09:58:59.055Z,18.20
2017-10-20T09:59:59.609Z,19.00
2017-10-20T10:00:58.950Z,17.30
2017-10-20T10:01:58.391Z,17.60
2017-10-20T10:02:58.481Z,18.00
2017-10-20T10:03:59.420Z,17.70
2017-10-20T10:04:58.518Z,18.60
2017-10-20T10:05:59.057Z,17.30
2017-10-20T10:06:58.610Z,18.10
2017-10-20T10:07:58.588Z,18.80
2017-10-20T10:08:59.136Z,21.80
2017-10-20T10:09:58.843Z,19.80
2017-10-20T10:10:59.119Z,22.50
2017-10-20T10:11:58.505Z,23.10
2017-10-20T10:12:59.286Z,21.90
2017-10-20T10:13:58.525Z,22.20
2017-10-20T10:14:59.199Z,22.90
2017-10-20T10:15:58.917Z,23.30
2017-10-20T10:16:59.248Z,21.90
2017-10-20T10:17:58.828Z,23.60
2017-10-20T10:18:58.257Z,25.20
2017-10-20T10:19:59.032Z,23.80
2017-10-20T10:20:59.622Z,22.90
2017-10-20T10:21:58.783Z,19.10
2017-10-20T10:22:59.057Z,20.30
2017-10-20T10:23:58.709Z,18.80
2017-10-20T10:24:59.311Z,18.60
2017-10-20T10:25:58.915Z,20.00
2017-10-20T10:26:59.223Z,20.30
2017-10-20T10:27:59.448Z,19.70
2017-10-20T10:28:59.022Z,21.40
2017-10-20T10:29:59.251Z,22.40
2017-10-20T10:30:58.576Z,21.30
2017-10-20T10:31:58.814Z,20.30
2017-10-20T10:33:00.306Z,22.20
2017-10-20T10:33:58.844Z,20.50
2017-10-20T10:34:58.509Z,23.00
2017-10-20T10:35:58.640Z,22.40
2017-10-20T10:36:58.687Z,22.90
2017-10-20T10:37:59.004Z,25.40
2017-10-20T10:38:59.549Z,25.10
2017-10-20T10:39:58.798Z,27.40
2017-10-20T10:40:58.887Z,27.40
2017-10-20T10:41:59.355Z,26.60
2017-10-20T10:42:58.509Z,25.90
2017-10-20T10:43:58.979Z,23.20
2017-10-20T10:44:59.042Z,25.90
2017-10-20T10:45:58.242Z,22.50
2017-10-20T10:46:58.899Z,24.90
2017-10-20T10:47:59.255Z,23.40
2017-10-20T10:48:58.765Z,24.60
2017-10-20T10:49:59.790Z,22.00
2017-10-20T10:50:59.410Z,22.00
2017-10-20T10:51:58.449Z,20.80
2017-10-20T10:52:58.489Z,22.50
2017-10-20T10:53:58.859Z,21.80
2017-10-20T10:54:58.812Z,23.40
2017-10-20T10:55:59.244Z,23.40
2017-10-20T10:56:58.675Z,18.80
2017-10-20T10:57:58.840Z,21.20
2017-10-20T10:58:59.471Z,18.30
2017-10-20T10:59:58.719Z,19.30
2017-10-20T11:00:59.305Z,21.40
2017-10-20T11:01:58.392Z,18.90
2017-10-20T11:02:58.447Z,20.10
2017-10-20T11:03:58.472Z,19.90
2017-10-20T11:04:59.063Z,16.30
2017-10-20T11:05:58.721Z,16.70
2017-10-20T11:06:59.112Z,16.50
2017-10-20T11:07:58.939Z,19.60
2017-10-20T11:08:59.087Z,17.90
2017-10-20T11:09:58.797Z,16.40
2017-10-20T11:10:59.304Z,16.90
2017-10-20T11:11:59.229Z,19.50
2017-10-20T11:12:59.542Z,18.40
2017-10-20T11:13:59.032Z,19.00
2017-10-20T11:14:58.522Z,17.40
2017-10-20T11:16:00.270Z,17.10
2017-10-20T11:16:58.883Z,16.60
2017-10-20T11:17:59.744Z,18.40
2017-10-20T11:18:58.788Z,17.50
2017-10-20T11:19:58.996Z,14.20
2017-10-20T11:20:59.420Z,14.20
2017-10-20T11:21:58.596Z,13.10
2017-10-20T11:22:58.538Z,13.30
2017-10-20T11:23:59.390Z,13.50
2017-10-20T11:24:58.722Z,13.20
2017-10-20T11:25:59.353Z,11.80
2017-10-20T11:26:58.512Z,12.80
2017-10-20T11:27:58.722Z,12.10
2017-10-20T11:28:59.828Z,11.60
2017-10-20T11:29:58.877Z,11.00
2017-10-20T11:30:59.468Z,10.90
2017-10-20T11:31:58.608Z,10.90
2017-10-20T11:32:59.233Z,11.00
2017-10-20T11:33:58.492Z,11.90
2017-10-20T11:34:59.395Z,11.70
2017-10-20T11:35:58.960Z,9.70
2017-10-20T11:36:59.623Z,11.30
2017-10-20T11:37:59.134Z,11.80
2017-10-20T11:38:59.686Z,11.10
2017-10-20T11:39:59.325Z,10.30
2017-10-20T11:40:58.827Z,10.10
2017-10-20T11:41:59.525Z,11.60
2017-10-20T11:42:58.847Z,10.60
2017-10-20T11:43:59.159Z,9.90
2017-10-20T11:44:59.060Z,10.70
2017-10-20T11:45:59.051Z,9.60
2017-10-20T11:46:58.303Z,8.90
2017-10-20T11:47:58.243Z,8.60
2017-10-20T11:48:58.371Z,9.50
2017-10-20T11:49:58.587Z,9.90
2017-10-20T11:50:59.214Z,9.30
2017-10-20T11:51:58.821Z,9.70
2017-10-20T11:52:59.361Z,9.20
2017-10-20T11:53:58.657Z,9.10
2017-10-20T11:54:58.760Z,9.10
2017-10-20T11:55:59.078Z,9.10
2017-10-20T11:56:59.325Z,9.50
2017-10-20T11:57:58.301Z,9.80
2017-10-20T11:58:59.607Z,9.50
2017-10-20T11:59:59.023Z,8.50
2017-10-20T12:00:58.092Z,9.00
2017-10-20T12:01:59.127Z,7.70
2017-10-20T12:02:58.645Z,8.20
2017-10-20T12:03:58.875Z,7.60
2017-10-20T12:05:00.144Z,8.00
2017-10-20T12:05:58.346Z,9.60
2017-10-20T12:06:59.005Z,9.90
2017-10-20T12:07:58.545Z,8.20
2017-10-20T12:08:59.657Z,7.90
2017-10-20T12:09:58.701Z,7.70
2017-10-20T12:10:58.941Z,7.50
2017-10-20T12:11:59.012Z,7.00
2017-10-20T12:12:58.127Z,7.20
2017-10-20T12:13:58.729Z,5.90
2017-10-20T12:14:59.157Z,6.50
2017-10-20T12:15:58.714Z,6.60
2017-10-20T12:17:00.741Z,7.30
2017-10-20T12:17:59.369Z,6.00
2017-10-20T12:18:58.809Z,6.40
2017-10-20T12:19:59.286Z,5.30
2017-10-20T12:20:58.709Z,5.00
2017-10-20T12:21:59.068Z,5.90
2017-10-20T12:22:59.855Z,4.10
2017-10-20T12:23:59.181Z,4.40
2017-10-20T12:24:58.574Z,4.00
2017-10-20T12:25:59.112Z,3.50
2017-10-20T12:26:59.106Z,3.50
2017-10-20T12:27:58.388Z,3.20
2017-10-20T12:29:00.845Z,3.10
2017-10-20T12:29:58.948Z,3.50
2017-10-20T12:30:58.275Z,3.40
2017-10-20T12:31:58.851Z,3.40
2017-10-20T12:33:00.058Z,3.10
2017-10-20T12:33:59.098Z,3.70
2017-10-20T12:34:58.300Z,3.00
2017-10-20T12:35:58.604Z,3.60
2017-10-20T12:36:58.823Z,3.30
2017-10-20T12:38:00.696Z,2.80
2017-10-20T12:38:59.275Z,2.90
2017-10-20T12:39:58.469Z,2.30
2017-10-20T12:40:59.309Z,2.80
2017-10-20T12:41:58.801Z,2.70
2017-10-20T12:42:59.410Z,2.10
2017-10-20T12:43:58.326Z,2.30
2017-10-20T12:44:59.260Z,2.40
2017-10-20T12:45:58.352Z,2.60
2017-10-20T12:46:58.841Z,2.10
2017-10-20T12:48:00.434Z,1.90
2017-10-20T12:48:59.135Z,2.00
2017-10-20T12:49:58.454Z,2.10
2017-10-20T12:50:59.862Z,1.90
2017-10-20T12:51:59.516Z,1.90
2017-10-20T12:52:58.998Z,1.70
2017-10-20T12:53:58.857Z,2.70
2017-10-20T12:54:58.362Z,2.00
2017-10-20T12:55:58.398Z,2.60
2017-10-20T12:56:58.803Z,1.70
2017-10-20T12:57:58.844Z,1.80
2017-10-20T12:58:58.965Z,1.90
2017-10-20T12:59:58.759Z,2.50
2017-10-20T13:00:58.696Z,2.10
2017-10-20T13:01:59.187Z,2.70
2017-10-20T13:02:58.445Z,2.00
2017-10-20T13:03:59.103Z,2.00
2017-10-20T13:04:59.605Z,2.00
2017-10-20T13:05:59.123Z,2.10
2017-10-20T13:06:58.176Z,1.80
2017-10-20T13:07:58.506Z,3.10